aviador You're here:

KSAV Decoded Metar

SAVANNAH in GA, USA
Report Time2017-11-25 02:53:00
UTC Time2017-11-25 03:30:36
Flight Rules vfr VFR
WindCalm
Visibility9999 m
Phenomena:N/A
Clouds:N/A
Expected CloudBase > 800 ft AGL from Temp-Dew spread
CeilingNone
Temp08°C (ISA -7)
Dew Point06°C (87% RH)
AAT7.1°C
QNH1015 hPa
Density Alt-725 ft
Elevation46 ft
Report Wrong Elevation
Raw Report
KSAV 250253Z 00000KT 10SM CLR 08/06 A2998 RMK AO2 SLP153 T00780061
50007=

Extra information for KSAV:More info

Metar Taf Metar & Taf Last 4 Metars F.Rules Stats Wind Profile Meteogram Temp Stats Airport Information Weather charts Add Link Nearby VenuesMetar ALERT Operation Metar Decoded Social comments

AIRNAV info for KSAV